Time;durP1;ratioP1;P1;durP2;ratioP2;P2;SDS_P1;SDS_P2;PMS_P1;PMS_P2;Temp;Humidity;BMP_temperature;BMP_pressure;BME280_temperature;BME280_humidity;BME280_pressure;Samples;Min_cycle;Max_cycle;Signal;HPM_P1;HPM_P2
2022/07/28 00:00:09;;;;;;;4.90;1.87;;;19.90;74.10;;;;;;5045690;28;20660;-83
2022/07/28 00:02:35;;;;;;;2.33;2.00;;;19.80;74.80;;;;;;5048911;28;20629;-81
2022/07/28 00:05:03;;;;;;;4.77;1.80;;;19.80;75.20;;;;;;5045857;28;20800;-82
2022/07/28 00:07:30;;;;;;;2.30;1.67;;;19.80;76.30;;;;;;5048362;28;21009;-82
2022/07/28 00:09:56;;;;;;;4.33;1.90;;;19.70;76.30;;;;;;5048935;28;20645;-82
2022/07/28 00:12:23;;;;;;;4.93;1.73;;;19.70;76.60;;;;;;5046945;28;20723;-82
2022/07/28 00:14:50;;;;;;;4.03;2.03;;;19.70;78.10;;;;;;5049883;28;20707;-82
2022/07/28 00:17:18;;;;;;;2.60;1.80;;;19.70;79.80;;;;;;5039848;28;20630;-82
2022/07/28 00:19:45;;;;;;;4.20;2.30;;;19.50;80.20;;;;;;5046543;28;20645;-82
2022/07/28 00:22:12;;;;;;;5.40;1.67;;;19.40;81.20;;;;;;5047942;28;20625;-82
2022/07/28 00:24:38;;;;;;;3.13;1.97;;;19.40;82.60;;;;;;5047347;28;20630;-81
2022/07/28 00:27:06;;;;;;;3.20;2.00;;;19.30;83.00;;;;;;5047654;28;20723;-82
2022/07/28 00:29:33;;;;;;;2.40;1.83;;;19.30;82.70;;;;;;5047013;28;20653;-82
2022/07/28 00:32:00;;;;;;;3.80;2.10;;;19.30;83.40;;;;;;5046009;28;20634;-82
2022/07/28 00:34:28;;;;;;;3.40;1.90;;;19.20;84.10;;;;;;5046101;28;20695;-82
2022/07/28 00:36:55;;;;;;;2.23;1.67;;;19.20;84.80;;;;;;5046765;28;20995;-82
2022/07/28 00:39:22;;;;;;;8.07;1.93;;;19.10;85.40;;;;;;5045694;28;21010;-82
2022/07/28 00:41:48;;;;;;;3.70;2.03;;;19.10;86.90;;;;;;5047610;28;21247;-82
2022/07/28 00:44:15;;;;;;;3.80;2.10;;;19.00;87.70;;;;;;5046422;28;20622;-82
2022/07/28 00:46:42;;;;;;;3.67;1.77;;;19.00;87.80;;;;;;5046218;28;20769;-82
2022/07/28 00:49:09;;;;;;;4.33;2.13;;;19.00;88.10;;;;;;5048152;28;20640;-81
2022/07/28 00:51:39;;;;;;;3.67;1.80;;;18.90;88.70;;;;;;5036108;28;20640;-81
2022/07/28 00:54:06;;;;;;;2.60;1.80;;;18.80;88.60;;;;;;5040819;28;20636;-82
2022/07/28 00:56:33;;;;;;;2.07;1.87;;;18.80;89.40;;;;;;5041011;28;20622;-83
2022/07/28 00:59:00;;;;;;;4.30;1.50;;;18.80;90.30;;;;;;5041967;28;20740;-83
2022/07/28 01:01:27;;;;;;;3.83;1.87;;;18.80;90.20;;;;;;5045858;28;21298;-82
2022/07/28 01:03:57;;;;;;;5.83;2.03;;;18.70;90.20;;;;;;5045989;28;20704;-80
2022/07/28 01:06:42;;;;;;;5.70;2.10;;;18.70;90.70;;;;;;5042240;28;20672;-81
2022/07/28 01:09:18;;;;;;;2.10;1.90;;;18.70;90.80;;;;;;5046882;28;20628;-82
2022/07/28 01:11:57;;;;;;;4.13;2.00;;;18.60;91.50;;;;;;5045407;28;20997;-82
2022/07/28 01:14:31;;;;;;;4.43;2.30;;;18.60;91.40;;;;;;5045078;28;20640;-81
2022/07/28 01:17:06;;;;;;;1.67;1.50;;;18.50;91.50;;;;;;5043997;28;20609;-83
2022/07/28 01:19:38;;;;;;;4.23;1.87;;;18.50;91.70;;;;;;5040634;28;20657;-82
2022/07/28 01:22:10;;;;;;;3.87;2.07;;;18.50;91.70;;;;;;5046094;28;20626;-82
2022/07/28 01:24:48;;;;;;;2.30;1.80;;;18.50;92.10;;;;;;5043054;28;20720;-82
2022/07/28 01:27:29;;;;;;;5.87;1.80;;;18.40;92.30;;;;;;5046957;28;21020;-82
2022/07/28 01:30:04;;;;;;;6.10;1.90;;;18.40;92.40;;;;;;5043486;28;20672;-82
2022/07/28 01:32:38;;;;;;;4.43;2.23;;;18.30;93.80;;;;;;5043738;28;20613;-82
2022/07/28 01:35:12;;;;;;;2.77;1.87;;;18.20;94.80;;;;;;5043327;28;20636;-82
2022/07/28 01:37:43;;;;;;;1.80;1.70;;;18.10;95.70;;;;;;5045502;28;20638;-82
2022/07/28 01:40:13;;;;;;;3.30;1.80;;;18.10;95.90;;;;;;5045756;28;21320;-82
2022/07/28 01:42:44;;;;;;;5.67;2.17;;;18.00;96.40;;;;;;5046352;28;20989;-82
2022/07/28 01:45:13;;;;;;;4.30;2.30;;;17.90;96.30;;;;;;5045689;28;21022;-82
2022/07/28 01:47:44;;;;;;;2.13;1.50;;;17.90;96.60;;;;;;5045614;28;20614;-82
2022/07/28 01:50:13;;;;;;;2.20;2.00;;;17.90;96.90;;;;;;5044780;28;21129;-82
2022/07/28 01:52:41;;;;;;;2.60;1.87;;;17.90;97.10;;;;;;5044256;28;21107;-82
2022/07/28 01:55:09;;;;;;;2.70;1.90;;;17.80;97.30;;;;;;5044554;28;20710;-82
2022/07/28 01:57:37;;;;;;;3.40;1.70;;;17.80;97.70;;;;;;5044907;28;21172;-82
2022/07/28 02:00:08;;;;;;;3.30;2.20;;;17.70;98.10;;;;;;5046030;28;20654;-81
2022/07/28 02:02:37;;;;;;;3.17;1.70;;;17.70;99.20;;;;;;5040674;28;20725;-81
2022/07/28 02:05:07;;;;;;;2.97;2.33;;;17.60;99.80;;;;;;5041932;28;20628;-81
2022/07/28 02:07:34;;;;;;;3.50;2.30;;;17.50;99.80;;;;;;5043158;28;20665;-81
2022/07/28 02:10:02;;;;;;;2.23;2.03;;;17.50;99.90;;;;;;5045001;28;20658;-80
2022/07/28 02:12:30;;;;;;;3.83;2.00;;;17.40;99.90;;;;;;5043928;28;20626;-81
2022/07/28 02:15:02;;;;;;;2.53;2.20;;;17.30;99.90;;;;;;5043890;28;20968;-81
2022/07/28 02:17:31;;;;;;;3.30;2.03;;;17.20;99.90;;;;;;5045236;28;20629;-81
2022/07/28 02:19:59;;;;;;;3.20;2.13;;;17.20;99.90;;;;;;5044176;28;20654;-81
2022/07/28 02:22:28;;;;;;;4.13;2.20;;;17.20;99.90;;;;;;5045286;28;21067;-80
2022/07/28 02:25:01;;;;;;;5.33;2.20;;;17.20;99.90;;;;;;5044383;28;20610;-81
2022/07/28 02:27:36;;;;;;;2.50;2.20;;;17.20;99.90;;;;;;5045438;28;20760;-81
2022/07/28 02:30:08;;;;;;;4.30;2.10;;;17.30;99.90;;;;;;5044407;28;20655;-81
2022/07/28 02:32:48;;;;;;;5.40;2.23;;;17.20;99.90;;;;;;5042376;28;20624;-81
2022/07/28 02:35:29;;;;;;;2.67;2.27;;;17.20;99.90;;;;;;5045061;28;21196;-81
2022/07/28 02:38:01;;;;;;;3.70;2.33;;;17.10;99.90;;;;;;5044570;28;20625;-81
2022/07/28 02:40:33;;;;;;;3.37;2.17;;;17.10;99.90;;;;;;5044567;28;20661;-81
2022/07/28 02:43:07;;;;;;;3.47;2.00;;;16.90;99.90;;;;;;5041080;28;20635;-81
2022/07/28 02:45:35;;;;;;;2.50;2.07;;;16.90;99.90;;;;;;5041110;28;20633;-81
2022/07/28 02:48:05;;;;;;;3.73;2.83;;;17.00;99.90;;;;;;5044924;28;20724;-82
2022/07/28 02:50:41;;;;;;;4.67;2.40;;;17.10;99.90;;;;;;5048726;28;20655;-81
2022/07/28 02:53:10;;;;;;;4.90;2.13;;;17.10;99.90;;;;;;5047197;28;20645;-81
2022/07/28 02:55:38;;;;;;;3.70;2.60;;;17.10;99.90;;;;;;5048609;28;20630;-82
2022/07/28 02:58:07;;;;;;;3.00;2.70;;;17.10;99.90;;;;;;5047744;28;20640;-82
2022/07/28 03:00:41;;;;;;;2.13;1.73;;;17.10;99.90;;;;;;5047876;28;21013;-82
2022/07/28 03:03:09;;;;;;;4.00;2.83;;;17.10;99.90;;;;;;5042640;28;20637;-81
2022/07/28 03:05:36;;;;;;;2.30;2.10;;;17.10;99.90;;;;;;5047119;28;21010;-81
2022/07/28 03:08:04;;;;;;;3.67;2.00;;;17.10;99.90;;;;;;5048113;28;21309;-82
2022/07/28 03:10:32;;;;;;;3.33;2.10;;;17.10;99.90;;;;;;5048675;28;20973;-81
2022/07/28 03:13:04;;;;;;;3.60;2.50;;;17.10;99.90;;;;;;5044351;28;20630;-81
2022/07/28 03:15:30;;;;;;;6.13;2.57;;;17.10;99.90;;;;;;5047811;28;20634;-81
2022/07/28 03:17:57;;;;;;;3.90;2.63;;;17.10;99.90;;;;;;5046489;28;20622;-81
2022/07/28 03:20:27;;;;;;;3.30;2.17;;;17.10;99.90;;;;;;5048576;28;20660;-82
2022/07/28 03:22:55;;;;;;;2.20;2.00;;;17.10;99.90;;;;;;5047686;28;20716;-82
2022/07/28 03:25:28;;;;;;;3.93;2.40;;;17.10;99.90;;;;;;5046319;28;20667;-82
2022/07/28 03:28:03;;;;;;;2.70;2.50;;;17.00;99.90;;;;;;5045531;28;20673;-81
2022/07/28 03:30:44;;;;;;;2.53;2.20;;;17.00;99.90;;;;;;5047674;28;20652;-82
2022/07/28 03:33:15;;;;;;;3.23;2.70;;;17.00;99.90;;;;;;5045600;28;21111;-81
2022/07/28 03:35:47;;;;;;;3.37;2.13;;;17.00;99.90;;;;;;5049143;28;20652;-81
2022/07/28 03:38:16;;;;;;;4.33;2.43;;;17.00;99.90;;;;;;5049284;28;20625;-82
2022/07/28 03:40:46;;;;;;;4.53;2.33;;;16.90;99.90;;;;;;5047834;28;21507;-82
2022/07/28 03:43:16;;;;;;;4.80;2.50;;;16.90;99.90;;;;;;5045963;28;20631;-82
2022/07/28 03:45:43;;;;;;;3.10;2.20;;;16.90;99.90;;;;;;5047755;28;20622;-82
2022/07/28 03:48:10;;;;;;;4.13;2.13;;;16.90;99.90;;;;;;5046580;28;21031;-82
2022/07/28 03:50:37;;;;;;;3.20;2.43;;;16.90;99.90;;;;;;5047792;28;21307;-82
2022/07/28 03:53:08;;;;;;;3.70;2.23;;;16.90;99.90;;;;;;5047125;28;20628;-82
2022/07/28 03:55:35;;;;;;;4.50;2.03;;;16.90;99.90;;;;;;5048692;28;20621;-82
2022/07/28 03:58:02;;;;;;;2.57;2.37;;;16.90;99.90;;;;;;5045236;28;20640;-82
2022/07/28 04:00:33;;;;;;;2.53;2.33;;;16.80;99.90;;;;;;5044461;28;20656;-82
2022/07/28 04:03:00;;;;;;;5.17;2.67;;;16.80;99.90;;;;;;5028331;28;21019;-82
2022/07/28 04:05:27;;;;;;;5.23;2.50;;;16.90;99.90;;;;;;5046217;28;20619;-82
2022/07/28 04:07:54;;;;;;;2.43;2.23;;;16.90;99.90;;;;;;5046160;28;20661;-82
2022/07/28 04:10:21;;;;;;;2.27;2.10;;;16.80;99.90;;;;;;5044235;28;20640;-82
2022/07/28 04:12:52;;;;;;;2.60;2.40;;;16.80;99.90;;;;;;5044337;28;21048;-83
2022/07/28 04:15:19;;;;;;;9.20;2.57;;;16.80;99.90;;;;;;5047758;28;20691;-82
2022/07/28 04:17:48;;;;;;;2.30;2.10;;;16.70;99.90;;;;;;5045993;28;20622;-82
2022/07/28 04:20:16;;;;;;;4.00;2.40;;;16.70;99.90;;;;;;5045988;28;20756;-82
2022/07/28 04:22:43;;;;;;;2.30;2.10;;;16.70;99.90;;;;;;5046112;28;20621;-82
2022/07/28 04:25:11;;;;;;;4.40;2.60;;;16.70;99.90;;;;;;5045801;28;20626;-82
2022/07/28 04:27:38;;;;;;;3.40;2.03;;;16.70;99.90;;;;;;5046564;28;20658;-82
2022/07/28 04:30:07;;;;;;;5.37;2.67;;;16.70;99.90;;;;;;5044100;28;20704;-81
2022/07/28 04:32:34;;;;;;;3.93;2.40;;;16.80;99.90;;;;;;5042078;28;20633;-81
2022/07/28 04:35:02;;;;;;;2.53;2.33;;;16.80;99.90;;;;;;5049263;28;20641;-81
2022/07/28 04:37:29;;;;;;;3.03;2.70;;;16.90;99.90;;;;;;5049979;28;21182;-81
2022/07/28 04:39:56;;;;;;;2.97;2.17;;;17.00;99.90;;;;;;5051346;28;20656;-81
2022/07/28 04:42:23;;;;;;;3.73;2.67;;;17.10;99.90;;;;;;5043279;28;20641;-81
2022/07/28 04:44:50;;;;;;;3.20;2.57;;;17.10;99.90;;;;;;5052131;28;20804;-82
2022/07/28 04:47:16;;;;;;;3.03;2.50;;;17.20;99.90;;;;;;5053535;28;20638;-81
2022/07/28 04:49:44;;;;;;;3.70;2.67;;;17.20;99.90;;;;;;5055129;28;20649;-81
2022/07/28 04:52:12;;;;;;;4.40;2.20;;;17.20;99.90;;;;;;5051605;28;21240;-81
2022/07/28 04:54:39;;;;;;;2.40;2.20;;;17.20;99.90;;;;;;5046565;28;20626;-81
2022/07/28 04:57:06;;;;;;;3.20;2.50;;;17.30;99.90;;;;;;5042816;28;20625;-81
2022/07/28 04:59:34;;;;;;;4.00;2.87;;;17.40;99.90;;;;;;5043617;28;20712;-81
2022/07/28 05:02:01;;;;;;;2.53;2.33;;;17.40;99.90;;;;;;5045340;28;20846;-81
2022/07/28 05:04:28;;;;;;;5.87;2.07;;;17.40;99.90;;;;;;5044308;28;21282;-81
2022/07/28 05:06:55;;;;;;;4.37;2.10;;;17.50;99.90;;;;;;5042920;28;20764;-81
2022/07/28 05:09:23;;;;;;;3.03;2.30;;;17.60;99.90;;;;;;5044314;28;20625;-81
2022/07/28 05:11:50;;;;;;;4.67;3.27;;;17.60;99.90;;;;;;5045415;28;20768;-81
2022/07/28 05:14:17;;;;;;;6.37;2.73;;;17.70;99.90;;;;;;5043176;28;21000;-81
2022/07/28 05:16:44;;;;;;;3.77;2.50;;;17.70;99.90;;;;;;5044923;28;20709;-81
2022/07/28 05:19:11;;;;;;;2.87;2.37;;;17.80;99.90;;;;;;5044763;28;20630;-81
2022/07/28 05:21:37;;;;;;;5.20;3.03;;;17.90;99.90;;;;;;5044382;28;20641;-81
2022/07/28 05:24:05;;;;;;;3.33;2.80;;;17.90;99.90;;;;;;5042049;28;21024;-81
2022/07/28 05:26:33;;;;;;;5.30;2.57;;;17.90;99.90;;;;;;5045005;28;20637;-81
2022/07/28 05:29:00;;;;;;;2.67;2.30;;;18.00;99.90;;;;;;5044533;28;20649;-81
2022/07/28 05:31:27;;;;;;;7.03;2.13;;;18.10;99.90;;;;;;5043746;28;20633;-82
2022/07/28 05:33:54;;;;;;;5.27;2.43;;;18.20;99.90;;;;;;5047608;28;20684;-82
2022/07/28 05:36:20;;;;;;;4.20;2.50;;;18.30;99.90;;;;;;5051954;28;20626;-82
2022/07/28 05:38:48;;;;;;;4.07;2.00;;;18.40;99.90;;;;;;5043322;28;20618;-82
2022/07/28 05:41:15;;;;;;;5.67;3.83;;;18.50;99.90;;;;;;5044420;28;21436;-82
2022/07/28 05:43:43;;;;;;;2.87;2.67;;;18.60;99.90;;;;;;5046538;28;21231;-82
2022/07/28 05:46:10;;;;;;;3.53;2.40;;;18.60;99.90;;;;;;5047488;28;20709;-82
2022/07/28 05:48:37;;;;;;;4.53;2.60;;;18.70;99.90;;;;;;5044854;28;20758;-82
2022/07/28 05:51:04;;;;;;;6.37;3.40;;;18.70;99.90;;;;;;5042892;28;20733;-82
2022/07/28 05:53:30;;;;;;;3.53;2.53;;;18.80;99.90;;;;;;5044504;28;21322;-82
2022/07/28 05:55:57;;;;;;;9.07;5.03;;;18.80;99.90;;;;;;5045032;28;20626;-82
2022/07/28 05:58:25;;;;;;;2.80;2.40;;;18.90;99.90;;;;;;5042472;28;20626;-82
2022/07/28 06:00:53;;;;;;;4.50;2.43;;;19.00;99.90;;;;;;5042624;28;21157;-82
2022/07/28 06:03:20;;;;;;;2.70;2.50;;;19.10;99.90;;;;;;5044365;28;20816;-82
2022/07/28 06:05:49;;;;;;;3.63;2.87;;;19.10;99.90;;;;;;5042838;28;21302;-82
2022/07/28 06:08:16;;;;;;;3.43;2.60;;;19.20;99.90;;;;;;5041265;28;20667;-82
2022/07/28 06:13:37;;;;;;;3.90;2.83;;;19.20;99.90;;;;;;5044760;28;20652;-81
2022/07/28 06:16:06;;;;;;;4.13;2.90;;;19.30;99.90;;;;;;5043410;28;20633;-82
2022/07/28 06:18:33;;;;;;;6.23;3.23;;;19.30;99.90;;;;;;5043895;28;20708;-81
2022/07/28 06:21:00;;;;;;;5.47;2.90;;;19.40;99.90;;;;;;5046098;28;21174;-82
2022/07/28 06:23:27;;;;;;;6.50;2.77;;;19.50;99.90;;;;;;5046122;28;21469;-81
2022/07/28 06:25:54;;;;;;;3.37;2.90;;;19.60;99.90;;;;;;5047961;28;20644;-81
2022/07/28 06:28:21;;;;;;;3.97;2.80;;;19.70;99.90;;;;;;5047023;28;20665;-81
2022/07/28 06:30:49;;;;;;;3.17;2.83;;;19.80;99.90;;;;;;5047465;28;21196;-81
2022/07/28 06:33:17;;;;;;;5.73;3.00;;;19.90;99.90;;;;;;5045857;28;20666;-81
2022/07/28 06:35:45;;;;;;;3.60;3.30;;;20.00;99.90;;;;;;5045332;28;20652;-81
2022/07/28 06:38:12;;;;;;;3.67;2.83;;;20.00;99.90;;;;;;5046921;28;20646;-81
2022/07/28 06:40:39;;;;;;;7.90;3.23;;;20.10;99.90;;;;;;5048788;28;20610;-81
2022/07/28 06:43:06;;;;;;;8.17;2.93;;;20.20;99.90;;;;;;5046225;28;20677;-81
2022/07/28 06:45:33;;;;;;;8.77;3.57;;;20.30;99.90;;;;;;5048455;28;20626;-82
2022/07/28 06:48:00;;;;;;;4.33;3.27;;;20.40;99.90;;;;;;5049447;28;20745;-82
2022/07/28 06:50:28;;;;;;;4.17;2.83;;;20.50;99.90;;;;;;5057202;28;20629;-81
2022/07/28 06:52:56;;;;;;;3.90;3.60;;;20.50;99.90;;;;;;5048650;28;20741;-81
2022/07/28 06:55:23;;;;;;;6.50;3.60;;;20.60;99.90;;;;;;5048607;28;20625;-82
2022/07/28 06:57:50;;;;;;;7.77;3.97;;;20.70;99.90;;;;;;5045649;28;20620;-82
2022/07/28 07:00:17;;;;;;;4.13;3.57;;;20.80;99.90;;;;;;5045976;28;20630;-82
2022/07/28 07:02:45;;;;;;;5.50;3.60;;;20.90;99.90;;;;;;5044093;28;20666;-82
2022/07/28 07:05:13;;;;;;;4.60;4.20;;;21.00;99.90;;;;;;5046444;28;20725;-82
2022/07/28 07:07:41;;;;;;;4.63;4.10;;;21.10;99.90;;;;;;5047302;28;20645;-82
2022/07/28 07:10:09;;;;;;;6.33;3.90;;;21.20;99.90;;;;;;5046170;28;20625;-82
2022/07/28 07:12:36;;;;;;;3.47;3.17;;;21.30;99.90;;;;;;5044611;28;21116;-81
2022/07/28 07:15:04;;;;;;;4.80;4.13;;;21.40;99.90;;;;;;5049448;28;20645;-81
2022/07/28 07:17:31;;;;;;;4.97;4.40;;;21.40;99.90;;;;;;5048940;28;20628;-82
2022/07/28 07:19:58;;;;;;;4.13;3.70;;;21.50;99.90;;;;;;5049093;28;21070;-82
2022/07/28 07:22:25;;;;;;;4.10;3.70;;;21.60;99.90;;;;;;5048933;28;20652;-82
2022/07/28 07:24:53;;;;;;;3.90;3.60;;;21.70;99.90;;;;;;5049422;28;20972;-83
2022/07/28 07:27:21;;;;;;;4.40;3.40;;;21.80;99.90;;;;;;5051559;28;20652;-83
2022/07/28 07:29:48;;;;;;;5.40;4.10;;;21.90;99.80;;;;;;5049237;28;20620;-82
2022/07/28 07:32:15;;;;;;;7.67;4.57;;;22.00;99.90;;;;;;5049534;28;20630;-83
2022/07/28 07:34:43;;;;;;;6.07;3.97;;;22.10;99.50;;;;;;5044171;28;20621;-83
2022/07/28 07:37:12;;;;;;;4.27;3.83;;;22.20;99.60;;;;;;5047311;28;20725;-83
2022/07/28 07:39:40;;;;;;;5.93;3.80;;;22.30;99.10;;;;;;5045132;28;21164;-83
2022/07/28 07:42:08;;;;;;;4.33;3.93;;;22.40;99.20;;;;;;5043674;28;20723;-83
2022/07/28 07:44:35;;;;;;;9.77;6.00;;;22.40;99.20;;;;;;5046230;28;21172;-83
2022/07/28 07:47:02;;;;;;;4.73;4.37;;;22.50;99.20;;;;;;5043443;28;20633;-81
2022/07/28 07:49:29;;;;;;;5.13;4.63;;;22.70;99.30;;;;;;5045065;28;20671;-80
2022/07/28 07:51:56;;;;;;;6.90;5.17;;;22.70;98.90;;;;;;5043486;28;20714;-83
2022/07/28 07:54:23;;;;;;;5.30;4.23;;;22.80;98.90;;;;;;5042765;28;20637;-81
2022/07/28 07:56:49;;;;;;;7.17;4.80;;;22.90;98.20;;;;;;5046086;28;20630;-82
2022/07/28 07:59:18;;;;;;;5.63;4.87;;;23.00;98.50;;;;;;5045937;28;20610;-83
2022/07/28 08:01:45;;;;;;;5.60;5.07;;;23.10;98.80;;;;;;5043035;28;20610;-82
2022/07/28 08:04:12;;;;;;;5.53;4.60;;;23.20;98.60;;;;;;5043776;28;20699;-82
2022/07/28 08:06:39;;;;;;;5.00;4.60;;;23.20;98.10;;;;;;5045691;28;20625;-82
2022/07/28 08:09:06;;;;;;;4.77;4.40;;;23.30;98.30;;;;;;5044797;28;21235;-82
2022/07/28 08:11:32;;;;;;;6.50;5.87;;;23.40;98.10;;;;;;5047061;28;21103;-81
2022/07/28 08:13:59;;;;;;;4.27;3.87;;;23.50;98.10;;;;;;5043818;28;20662;-81
2022/07/28 08:16:28;;;;;;;5.43;4.30;;;23.60;97.70;;;;;;5043479;28;20644;-82
2022/07/28 08:18:57;;;;;;;5.53;4.73;;;23.70;97.80;;;;;;5045869;28;20702;-81
2022/07/28 08:21:24;;;;;;;6.83;4.33;;;23.70;97.70;;;;;;5042972;28;20688;-82
2022/07/28 08:23:54;;;;;;;4.73;4.23;;;23.80;97.20;;;;;;5040747;28;20646;-82
2022/07/28 08:26:21;;;;;;;5.97;4.50;;;23.90;97.20;;;;;;5042541;28;20630;-82
2022/07/28 08:28:48;;;;;;;5.00;4.53;;;24.10;96.70;;;;;;5052906;28;20673;-82
2022/07/28 08:31:19;;;;;;;5.43;4.97;;;24.10;96.50;;;;;;5045225;28;20638;-82
2022/07/28 08:33:47;;;;;;;5.30;4.87;;;24.20;96.70;;;;;;5042749;28;20661;-82
2022/07/28 08:36:14;;;;;;;7.83;4.80;;;24.30;96.70;;;;;;5041594;28;20622;-82
2022/07/28 08:38:42;;;;;;;5.53;4.80;;;24.30;96.10;;;;;;5039781;28;20613;-82
2022/07/28 08:41:16;;;;;;;4.90;4.50;;;24.40;96.40;;;;;;5046234;28;20684;-82
2022/07/28 08:43:45;;;;;;;4.50;4.20;;;24.50;95.90;;;;;;5045250;28;20649;-82
2022/07/28 08:46:12;;;;;;;5.20;4.77;;;24.60;96.20;;;;;;5046215;28;20634;-82
2022/07/28 08:48:39;;;;;;;5.87;4.90;;;24.80;96.00;;;;;;5052142;28;20803;-82
2022/07/28 08:51:10;;;;;;;8.80;4.90;;;24.80;95.90;;;;;;5043588;28;20646;-82
2022/07/28 08:53:39;;;;;;;8.37;4.53;;;24.90;95.60;;;;;;5038188;28;20661;-82
2022/07/28 08:56:08;;;;;;;5.23;4.70;;;25.00;95.40;;;;;;5047788;28;20692;-83
2022/07/28 08:58:38;;;;;;;5.87;4.77;;;25.10;95.60;;;;;;5047250;28;20626;-82
2022/07/28 09:01:07;;;;;;;6.10;5.30;;;25.20;95.40;;;;;;5046706;28;21149;-82
2022/07/28 09:03:34;;;;;;;4.83;4.43;;;25.40;94.50;;;;;;5045530;28;20649;-82
2022/07/28 09:06:01;;;;;;;8.00;4.77;;;25.40;95.00;;;;;;5046216;28;20628;-83
2022/07/28 09:08:29;;;;;;;7.30;5.40;;;25.50;94.60;;;;;;5045581;28;20686;-82
2022/07/28 09:10:56;;;;;;;5.00;4.60;;;25.60;94.50;;;;;;5045489;28;20621;-81
2022/07/28 09:13:23;;;;;;;4.63;4.13;;;25.70;94.00;;;;;;5042638;28;20653;-81
2022/07/28 09:15:50;;;;;;;5.60;5.10;;;25.80;94.00;;;;;;5045520;28;21121;-82
2022/07/28 09:18:18;;;;;;;9.70;5.73;;;25.80;93.50;;;;;;5046151;28;20709;-82
2022/07/28 09:20:45;;;;;;;5.53;5.23;;;25.90;93.90;;;;;;5048877;28;21458;-82
2022/07/28 09:23:13;;;;;;;6.80;4.97;;;26.00;93.80;;;;;;5044251;28;20654;-82
2022/07/28 09:25:41;;;;;;;6.63;5.07;;;26.10;93.90;;;;;;5040887;28;20721;-82
2022/07/28 09:28:10;;;;;;;5.30;4.80;;;26.20;93.70;;;;;;5044975;28;20703;-82
2022/07/28 09:30:40;;;;;;;8.43;5.23;;;26.30;93.30;;;;;;5049670;28;20648;-82
2022/07/28 09:33:21;;;;;;;5.57;5.13;;;26.40;93.50;;;;;;5043348;28;20640;-82
2022/07/28 09:35:51;;;;;;;7.83;5.40;;;26.40;92.70;;;;;;5042171;28;20661;-82
2022/07/28 09:38:19;;;;;;;4.30;3.90;;;26.30;92.80;;;;;;5042293;28;20617;-81
2022/07/28 09:41:02;;;;;;;5.90;5.13;;;26.30;93.20;;;;;;5045054;28;20622;-83
2022/07/28 09:43:34;;;;;;;5.93;5.20;;;26.40;93.60;;;;;;5043926;28;20713;-81
2022/07/28 09:46:06;;;;;;;5.10;4.60;;;26.50;93.20;;;;;;5043678;28;20645;-81
2022/07/28 09:48:33;;;;;;;5.83;5.00;;;26.60;93.00;;;;;;5041276;28;21253;-81
2022/07/28 09:51:12;;;;;;;5.23;4.90;;;26.80;92.90;;;;;;5044090;28;20675;-81
2022/07/28 09:53:39;;;;;;;5.27;4.87;;;26.90;92.40;;;;;;5041818;28;20637;-81
2022/07/28 09:56:08;;;;;;;5.00;4.70;;;27.00;92.20;;;;;;5043375;28;20764;-81
2022/07/28 09:58:35;;;;;;;5.70;4.73;;;27.20;91.90;;;;;;5040618;28;20625;-81
2022/07/28 10:01:03;;;;;;;7.73;5.27;;;27.30;91.30;;;;;;5044684;28;20640;-81
2022/07/28 10:03:31;;;;;;;5.00;4.40;;;27.50;91.70;;;;;;5045319;28;20675;-81
2022/07/28 10:06:03;;;;;;;7.37;4.87;;;27.70;91.50;;;;;;5044121;28;21485;-81
2022/07/28 10:08:41;;;;;;;5.37;4.87;;;27.80;90.70;;;;;;5043471;28;20689;-81
2022/07/28 10:11:10;;;;;;;4.83;4.43;;;28.00;90.80;;;;;;5042829;28;20625;-81
2022/07/28 10:13:52;;;;;;;9.30;5.20;;;28.10;90.20;;;;;;5041934;28;20634;-81
2022/07/28 10:16:20;;;;;;;8.70;5.60;;;28.10;90.10;;;;;;5044641;28;20657;-81
2022/07/28 10:18:48;;;;;;;4.73;4.30;;;28.20;90.00;;;;;;5044516;28;20629;-81
2022/07/28 10:21:19;;;;;;;4.37;4.07;;;28.30;90.00;;;;;;5044962;28;21064;-81
2022/07/28 10:23:49;;;;;;;5.57;4.87;;;28.40;89.70;;;;;;5044280;28;20725;-81
2022/07/28 10:26:20;;;;;;;5.43;5.03;;;28.50;88.80;;;;;;5042235;28;20658;-81
2022/07/28 10:28:49;;;;;;;5.10;4.60;;;28.50;87.60;;;;;;5043693;28;20668;-81
2022/07/28 10:31:25;;;;;;;7.43;5.80;;;28.70;87.40;;;;;;5044556;28;20633;-82
2022/07/28 10:33:55;;;;;;;4.90;4.50;;;28.70;87.70;;;;;;5039478;28;20879;-83
2022/07/28 10:36:24;;;;;;;6.20;5.17;;;29.00;87.60;;;;;;5041391;28;20685;-83
2022/07/28 10:39:00;;;;;;;7.27;6.87;;;29.00;86.70;;;;;;5040769;28;20619;-83
2022/07/28 10:41:38;;;;;;;9.07;7.50;;;29.10;86.30;;;;;;5042575;28;20637;-82
2022/07/28 10:44:06;;;;;;;7.73;4.50;;;29.20;86.00;;;;;;5041973;28;20624;-82
2022/07/28 10:46:33;;;;;;;5.70;5.10;;;29.20;86.20;;;;;;5045980;28;20708;-83
2022/07/28 10:49:01;;;;;;;4.83;4.43;;;29.20;84.40;;;;;;5043800;28;20653;-82
2022/07/28 10:51:29;;;;;;;6.17;5.63;;;29.30;84.80;;;;;;5042818;28;20668;-83
2022/07/28 10:54:03;;;;;;;5.23;4.73;;;29.40;84.20;;;;;;5041419;28;20626;-82
2022/07/28 10:56:44;;;;;;;4.60;4.20;;;29.40;83.50;;;;;;5038742;28;21246;-82
2022/07/28 10:59:31;;;;;;;8.93;4.70;;;29.50;83.70;;;;;;5043941;28;20633;-82
2022/07/28 11:01:57;;;;;;;6.97;4.40;;;29.70;83.00;;;;;;5045665;28;20703;-82
2022/07/28 11:04:54;;;;;;;4.90;4.40;;;29.90;82.10;;;;;;5045712;28;20641;-83
2022/07/28 11:07:22;;;;;;;5.77;5.37;;;30.10;81.40;;;;;;5044829;28;20673;-83
2022/07/28 11:09:50;;;;;;;4.70;4.40;;;30.40;81.10;;;;;;5048309;28;20736;-82
2022/07/28 11:12:45;;;;;;;4.80;4.50;;;30.60;80.20;;;;;;5047407;28;20725;-82
2022/07/28 11:15:25;;;;;;;5.30;4.40;;;30.70;76.80;;;;;;5045674;28;21254;-82
2022/07/28 11:18:05;;;;;;;4.97;4.57;;;30.80;76.40;;;;;;5041973;28;21265;-82
2022/07/28 11:21:07;;;;;;;4.83;4.43;;;30.90;75.90;;;;;;5048442;28;20622;-83
2022/07/28 11:23:40;;;;;;;5.63;4.63;;;31.20;75.70;;;;;;5045024;28;20620;-83
2022/07/28 11:26:33;;;;;;;4.80;4.07;;;31.40;73.90;;;;;;5046390;28;20657;-82
2022/07/28 11:29:21;;;;;;;4.90;4.60;;;31.50;72.60;;;;;;5045954;28;20707;-83
2022/07/28 11:32:02;;;;;;;7.40;3.93;;;31.60;72.70;;;;;;5053836;28;20672;-83
2022/07/28 11:35:06;;;;;;;9.87;4.10;;;31.50;73.00;;;;;;5053791;28;20625;-83
2022/07/28 11:38:09;;;;;;;15.40;4.73;;;31.50;71.40;;;;;;5047541;28;21200;-83
2022/07/28 11:40:38;;;;;;;5.03;4.07;;;31.50;69.60;;;;;;5053999;28;20671;-84
2022/07/28 11:43:32;;;;;;;6.67;3.80;;;31.70;69.30;;;;;;5059193;28;20633;-83
2022/07/28 11:46:26;;;;;;;6.03;4.93;;;31.70;68.70;;;;;;5058099;28;20629;-83
2022/07/28 11:49:18;;;;;;;11.57;4.33;;;31.50;69.00;;;;;;5060276;28;20721;-83
2022/07/28 11:52:08;;;;;;;12.80;3.77;;;31.50;69.70;;;;;;5056321;28;20616;-82
2022/07/28 11:54:36;;;;;;;11.63;4.23;;;31.70;68.20;;;;;;5051348;28;20649;-81
2022/07/28 11:57:04;;;;;;;5.70;3.80;;;31.70;66.80;;;;;;5059128;28;20659;-82
2022/07/28 11:59:41;;;;;;;5.43;3.60;;;31.50;66.70;;;;;;5051387;28;20626;-82
2022/07/28 12:02:08;;;;;;;4.63;3.90;;;31.30;64.80;;;;;;5050619;28;21436;-82
2022/07/28 12:04:36;;;;;;;4.30;3.90;;;31.20;66.00;;;;;;5054451;28;20628;-83
2022/07/28 12:07:05;;;;;;;4.17;3.80;;;31.20;65.20;;;;;;5056064;28;20733;-82
2022/07/28 12:09:32;;;;;;;3.83;3.53;;;31.50;65.30;;;;;;5054034;28;20698;-83
2022/07/28 12:12:00;;;;;;;4.97;3.43;;;31.70;64.40;;;;;;5052717;28;20621;-84
2022/07/28 12:14:27;;;;;;;6.00;3.60;;;31.70;64.30;;;;;;5058413;28;20669;-83
2022/07/28 12:16:55;;;;;;;5.57;3.67;;;32.10;64.30;;;;;;5057875;28;20700;-83
2022/07/28 12:19:23;;;;;;;3.63;3.33;;;32.10;63.80;;;;;;5057449;28;20736;-82
2022/07/28 12:21:52;;;;;;;3.70;3.40;;;32.50;64.40;;;;;;5055482;28;20629;-83
2022/07/28 12:24:27;;;;;;;4.47;4.17;;;32.80;62.20;;;;;;5053059;28;21204;-83
2022/07/28 12:26:56;;;;;;;6.50;3.60;;;33.20;62.30;;;;;;5053467;28;20684;-83
2022/07/28 12:29:28;;;;;;;4.13;3.70;;;33.30;61.10;;;;;;5054699;28;20663;-83
2022/07/28 12:31:57;;;;;;;4.40;3.90;;;33.60;60.70;;;;;;5054325;28;20637;-83
2022/07/28 12:34:25;;;;;;;4.17;3.87;;;33.80;59.60;;;;;;5052114;28;20621;-84
2022/07/28 12:36:55;;;;;;;3.97;3.70;;;34.00;58.60;;;;;;5053823;28;20657;-82
2022/07/28 12:39:24;;;;;;;8.43;4.33;;;34.30;58.60;;;;;;5051554;28;20625;-83
2022/07/28 12:42:02;;;;;;;7.50;3.73;;;34.80;58.00;;;;;;5056401;28;20629;-82
2022/07/28 12:44:36;;;;;;;4.20;3.77;;;35.40;57.70;;;;;;5055288;28;20632;-83
2022/07/28 12:47:05;;;;;;;5.57;3.40;;;35.80;56.10;;;;;;5050415;28;20771;-82
2022/07/28 12:49:35;;;;;;;3.30;3.10;;;35.90;53.00;;;;;;5054700;28;21251;-82
2022/07/28 12:52:17;;;;;;;5.57;3.70;;;35.50;52.00;;;;;;5055355;28;20627;-83
2022/07/28 12:54:44;;;;;;;4.93;3.73;;;34.90;53.00;;;;;;5047043;28;20618;-83
2022/07/28 12:57:11;;;;;;;4.47;4.07;;;35.10;54.50;;;;;;5048584;28;20661;-83
2022/07/28 12:59:39;;;;;;;4.33;3.90;;;35.10;53.20;;;;;;5048434;28;21001;-83
2022/07/28 13:02:08;;;;;;;4.47;4.07;;;34.70;52.90;;;;;;5045877;28;20759;-83